Current Conditions

Updated: 15-Jan-2018 11:23 PM  
Summary / Temperature Wind Rain






Feels like: 47°F

1-hour difference
1.4°F 1.4°F colder than last hour.

24-hour difference
0.0°F 

  Today Yesterday
High: 62.8°F
3:29 PM
56.7°F
1:46 PM
Low: 40.3°F
7:19 AM
45.6°F
8:55 PM
Calm ESE
0.0
Gust:  0.0 mph
0 Beaufort - Calm

Today: 4.9 - 9:55 AM
Month: 11.5 mph - Jan 10
Rain Today: 0.01 in
Current Rate (/hr): 0.000 in
Max Rate (/hr):
Rain Yesterday: 0.00 in
Storm Rain: 0.00 in
This Month: 0.80 in
Season Total: 1.53 in
Last Rain Event: Today
Humidity / Barometer Sun / Moon
Humidity: 96  
Dew Point: 46.1°F Decreased 1.4°F in the last hour.
Barometer: 30.150 inHg  
Baro Trend: Steady
Sunrise: 7:06 AM
Sunset: 5:05 PM
Moonrise: 6:42 AM
Moonset: 4:07 PM
Sky Conditions UV Index
Summary: Mist, Clear
Visibility: 1 ¾ miles
Clouds: None
KVIS - 10:56 PM PST
Current: 0.0  None 
Tuesday: 2.2  Low 
Wednesday: 2.3  Low 
Air Quality Fire Danger
 Moderate 
Ozone 2 ppb
PM 2.5 32 μg/m3
11:20 PM PST
Current: 0  Low 

Local Alerts Local Forecast
Local NWS Alerts
Tonight

Partly
Cloudy
Low 43
Tue

Partly
Cloudy
High 63
Tue night

Partly
Cloudy
Low 42
Wed

Partly
Cloudy
High 63
Wed night

Partly
Cloudy
Low 44
Thu

Chance of
Rain
High 64
Thu night

Rain

Low 47

Local Radar Local Satellite Neighborhood Cam Sky Cam
Local Radar Local Satellite Neighborhood Cam Sky Cam


Nearby Personal Stations

Weather Underground PWS KCAEXETE7     Weather Underground PWS KCAEXETE6     Weather Underground PWS KCAEXETE11

Nearby Airport Stations

KVIS - Visalia, California, USA
Distance from station: W 14mi, 23km
Updated: Mon, 15-Jan-2018 10:56pm PST
Mist, Clear
Mist, Clear
 Wind from W
Wind: W 5 mph , 7 km/h
Temperature: 46°F , 8°C
Wind Chill: 44°F , 7°C
Dew Point: 46°F , 8°C
Humidity: 100%
Barometer: 30.16 inHg , 1021.3 hPa
Summary: Mist
Clouds: Clear
Visibility: 1 3/4 miles , 5 km
2018/01/16 06:56 KVIS 160656Z AUTO 26004KT 1 3/4SM BR CLR 08/08 A3016 RMK AO2 SLP222 T00830078
KPTV - Porterville, California, USA
Distance from station: SSE 19mi, 31km
Updated: Mon, 15-Jan-2018 11:05pm PST
Mist, Clear
Mist, Clear
 Wind from calm
Wind: Calm
Temperature: 48°F , 9°C
Dew Point: 48°F , 9°C
Humidity: 100%
Barometer: 30.15 inHg , 1021 hPa
Summary: Mist
Clouds: Clear
Visibility: 2 miles , 3 km
2018/01/16 07:05 KPTV 160705Z AUTO 00000KT 2SM BR CLR 09/09 A3015 RMK AO2

Metar display script from Saratoga-Weather.org



Visitor Map